sensor_id;sensor_type;location;lat;lon;timestamp;pressure;altitude;pressure_sealevel;temperature;humidity
77161;BME280;66135;0.000;0.000;2023-09-19T00:02:19;100704.44;;;22.29;74.21
77161;BME280;66135;0.000;0.000;2023-09-19T00:04:44;100707.16;;;22.29;74.65
77161;BME280;66135;0.000;0.000;2023-09-19T00:07:10;100722.69;;;22.28;74.76
77161;BME280;66135;0.000;0.000;2023-09-19T00:09:35;100714.50;;;22.28;74.66
77161;BME280;66135;0.000;0.000;2023-09-19T00:12:06;100713.69;;;22.28;74.23
77161;BME280;66135;0.000;0.000;2023-09-19T00:14:32;100707.38;;;22.27;74.61
77161;BME280;66135;0.000;0.000;2023-09-19T00:17:01;100712.19;;;22.25;74.78
77161;BME280;66135;0.000;0.000;2023-09-19T00:19:31;100716.78;;;22.25;74.48
77161;BME280;66135;0.000;0.000;2023-09-19T00:21:57;100718.69;;;22.24;74.31
77161;BME280;66135;0.000;0.000;2023-09-19T00:24:23;100724.97;;;22.25;74.62
77161;BME280;66135;0.000;0.000;2023-09-19T00:26:48;100721.59;;;22.23;74.59
77161;BME280;66135;0.000;0.000;2023-09-19T00:29:14;100723.31;;;22.24;74.46
77161;BME280;66135;0.000;0.000;2023-09-19T00:31:44;100732.53;;;22.23;74.51
77161;BME280;66135;0.000;0.000;2023-09-19T00:34:10;100729.78;;;22.23;74.57
77161;BME280;66135;0.000;0.000;2023-09-19T00:36:39;100728.97;;;22.22;74.45
77161;BME280;66135;0.000;0.000;2023-09-19T00:39:05;100738.19;;;22.21;74.41
77161;BME280;66135;0.000;0.000;2023-09-19T00:41:34;100743.66;;;22.21;74.53
77161;BME280;66135;0.000;0.000;2023-09-19T00:44:01;100747.22;;;22.22;74.19
77161;BME280;66135;0.000;0.000;2023-09-19T00:46:27;100756.47;;;22.21;74.57
77161;BME280;66135;0.000;0.000;2023-09-19T00:48:53;100756.47;;;22.21;74.19
77161;BME280;66135;0.000;0.000;2023-09-19T00:51:20;100748.28;;;22.21;74.58
77161;BME280;66135;0.000;0.000;2023-09-19T00:53:47;100749.09;;;22.21;73.95
77161;BME280;66135;0.000;0.000;2023-09-19T00:56:14;100762.09;;;22.19;73.96
77161;BME280;66135;0.000;0.000;2023-09-19T00:58:43;100757.72;;;22.18;74.50
77161;BME280;66135;0.000;0.000;2023-09-19T01:01:09;100767.78;;;22.18;74.21
77161;BME280;66135;0.000;0.000;2023-09-19T01:03:37;100766.75;;;22.19;74.20
77161;BME280;66135;0.000;0.000;2023-09-19T01:06:02;100766.94;;;22.17;74.38
77161;BME280;66135;0.000;0.000;2023-09-19T01:08:28;100776.81;;;22.18;74.46
77161;BME280;66135;0.000;0.000;2023-09-19T01:18:48;100780.78;;;22.16;74.42
77161;BME280;66135;0.000;0.000;2023-09-19T01:21:32;100784.56;;;22.15;74.29
77161;BME280;66135;0.000;0.000;2023-09-19T01:29:39;100794.63;;;22.14;74.13
77161;BME280;66135;0.000;0.000;2023-09-19T01:32:10;100789.16;;;22.14;74.40
77161;BME280;66135;0.000;0.000;2023-09-19T01:34:51;100791.06;;;22.14;74.17
77161;BME280;66135;0.000;0.000;2023-09-19T01:37:19;100801.13;;;22.13;74.32
77161;BME280;66135;0.000;0.000;2023-09-19T01:39:50;100802.16;;;22.12;74.16
77161;BME280;66135;0.000;0.000;2023-09-19T01:47:48;100798.63;;;22.12;74.31
77161;BME280;66135;0.000;0.000;2023-09-19T01:51:09;100805.94;;;22.11;73.85
77161;BME280;66135;0.000;0.000;2023-09-19T01:53:26;100807.00;;;22.10;73.75
77161;BME280;66135;0.000;0.000;2023-09-19T01:55:56;100809.72;;;22.10;73.90
77161;BME280;66135;0.000;0.000;2023-09-19T01:58:37;100807.00;;;22.10;74.18
77161;BME280;66135;0.000;0.000;2023-09-19T02:01:05;100806.16;;;22.10;73.87
77161;BME280;66135;0.000;0.000;2023-09-19T02:03:34;100804.44;;;22.09;74.23
77161;BME280;66135;0.000;0.000;2023-09-19T02:06:00;100800.91;;;22.08;73.81
77161;BME280;66135;0.000;0.000;2023-09-19T02:08:26;100803.63;;;22.08;74.09
77161;BME280;66135;0.000;0.000;2023-09-19T02:10:53;100801.94;;;22.07;73.87
77161;BME280;66135;0.000;0.000;2023-09-19T02:13:19;100802.78;;;22.08;74.15
77161;BME280;66135;0.000;0.000;2023-09-19T02:15:45;100801.09;;;22.07;74.08
77161;BME280;66135;0.000;0.000;2023-09-19T02:18:12;100801.09;;;22.07;73.81
77161;BME280;66135;0.000;0.000;2023-09-19T02:20:37;100804.84;;;22.06;74.20
77161;BME280;66135;0.000;0.000;2023-09-19T02:23:03;100802.34;;;22.04;74.14
77161;BME280;66135;0.000;0.000;2023-09-19T02:25:28;100801.31;;;22.05;73.99
77161;BME280;66135;0.000;0.000;2023-09-19T02:27:54;100797.72;;;22.05;74.07
77161;BME280;66135;0.000;0.000;2023-09-19T02:30:23;100796.03;;;22.04;74.08
77161;BME280;66135;0.000;0.000;2023-09-19T02:32:50;100810.53;;;22.04;73.83
77161;BME280;66135;0.000;0.000;2023-09-19T02:35:16;100809.66;;;22.04;74.09
77161;BME280;66135;0.000;0.000;2023-09-19T02:37:41;100804.22;;;22.04;74.01
77161;BME280;66135;0.000;0.000;2023-09-19T02:40:07;100809.66;;;22.04;73.74
77161;BME280;66135;0.000;0.000;2023-09-19T02:42:45;100808.00;;;22.03;73.69
77161;BME280;66135;0.000;0.000;2023-09-19T02:45:12;100819.13;;;22.01;73.99
77161;BME280;66135;0.000;0.000;2023-09-19T02:47:39;100825.44;;;22.02;73.98
77161;BME280;66135;0.000;0.000;2023-09-19T02:50:05;100810.09;;;22.01;74.04
77161;BME280;66135;0.000;0.000;2023-09-19T02:52:31;100813.66;;;22.01;73.63
77161;BME280;66135;0.000;0.000;2023-09-19T02:54:56;100811.97;;;22.00;73.85
77161;BME280;66135;0.000;0.000;2023-09-19T02:57:22;100817.41;;;22.00;73.69
77161;BME280;66135;0.000;0.000;2023-09-19T02:59:49;100818.47;;;21.99;74.00
77161;BME280;66135;0.000;0.000;2023-09-19T03:02:14;100822.06;;;22.00;73.87
77161;BME280;66135;0.000;0.000;2023-09-19T03:04:41;100819.31;;;22.00;73.73
77161;BME280;66135;0.000;0.000;2023-09-19T03:07:06;100826.66;;;21.99;73.83
77161;BME280;66135;0.000;0.000;2023-09-19T03:09:31;100822.25;;;21.98;73.90
77161;BME280;66135;0.000;0.000;2023-09-19T03:11:57;100824.97;;;21.98;73.94
77161;BME280;66135;0.000;0.000;2023-09-19T03:14:23;100818.69;;;21.98;73.89
77161;BME280;66135;0.000;0.000;2023-09-19T03:16:49;100822.44;;;21.97;73.98
77161;BME280;66135;0.000;0.000;2023-09-19T03:19:14;100819.69;;;21.97;73.83
77161;BME280;66135;0.000;0.000;2023-09-19T03:21:40;100819.69;;;21.97;73.65
77161;BME280;66135;0.000;0.000;2023-09-19T03:24:05;100814.25;;;21.97;73.81
77161;BME280;66135;0.000;0.000;2023-09-19T03:26:31;100821.59;;;21.96;73.73
77161;BME280;66135;0.000;0.000;2023-09-19T03:28:57;100819.91;;;21.95;73.57
77161;BME280;66135;0.000;0.000;2023-09-19T03:31:22;100825.34;;;21.95;73.96
77161;BME280;66135;0.000;0.000;2023-09-19T03:33:47;100830.81;;;21.95;73.82
77161;BME280;66135;0.000;0.000;2023-09-19T03:36:13;100823.69;;;21.94;73.57
77161;BME280;66135;0.000;0.000;2023-09-19T03:38:40;100823.69;;;21.94;73.76
77161;BME280;66135;0.000;0.000;2023-09-19T03:41:06;100826.63;;;21.93;73.61
77161;BME280;66135;0.000;0.000;2023-09-19T03:43:32;100818.44;;;21.93;73.83
77161;BME280;66135;0.000;0.000;2023-09-19T03:46:00;100828.28;;;21.94;73.57
77161;BME280;66135;0.000;0.000;2023-09-19T03:48:27;100822.19;;;21.92;73.66
77161;BME280;66135;0.000;0.000;2023-09-19T03:50:53;100820.31;;;21.92;73.71
77161;BME280;66135;0.000;0.000;2023-09-19T03:53:19;100818.66;;;21.91;73.58
77161;BME280;66135;0.000;0.000;2023-09-19T03:55:45;100807.72;;;21.91;73.67
77161;BME280;66135;0.000;0.000;2023-09-19T03:58:11;100815.91;;;21.91;73.48
77161;BME280;66135;0.000;0.000;2023-09-19T04:00:36;100810.47;;;21.91;73.62
77161;BME280;66135;0.000;0.000;2023-09-19T04:03:02;100820.53;;;21.91;73.41
77161;BME280;66135;0.000;0.000;2023-09-19T04:05:31;100809.59;;;21.91;73.62
77161;BME280;66135;0.000;0.000;2023-09-19T04:07:56;100806.03;;;21.90;73.29
77161;BME280;66135;0.000;0.000;2023-09-19T04:10:22;100808.97;;;21.89;73.54
77161;BME280;66135;0.000;0.000;2023-09-19T04:12:52;100818.00;;;21.89;73.71
77161;BME280;66135;0.000;0.000;2023-09-19T04:15:18;100818.19;;;21.88;73.16
77161;BME280;66135;0.000;0.000;2023-09-19T04:17:43;100808.97;;;21.89;73.62
77161;BME280;66135;0.000;0.000;2023-09-19T04:20:09;100810.00;;;21.88;73.40
77161;BME280;66135;0.000;0.000;2023-09-19T04:22:37;100806.63;;;21.86;73.21
77161;BME280;66135;0.000;0.000;2023-09-19T04:25:03;100815.47;;;21.88;73.06
77161;BME280;66135;0.000;0.000;2023-09-19T04:27:29;100822.59;;;21.89;73.37
77161;BME280;66135;0.000;0.000;2023-09-19T04:29:54;100826.38;;;21.88;73.06
77161;BME280;66135;0.000;0.000;2023-09-19T04:32:24;100833.72;;;21.87;73.21
77161;BME280;66135;0.000;0.000;2023-09-19T04:34:49;100835.59;;;21.87;73.05
77161;BME280;66135;0.000;0.000;2023-09-19T04:37:15;100847.34;;;21.87;73.30
77161;BME280;66135;0.000;0.000;2023-09-19T04:39:40;100848.00;;;21.89;72.78
77161;BME280;66135;0.000;0.000;2023-09-19T04:42:05;100846.09;;;21.90;72.77
77161;BME280;66135;0.000;0.000;2023-09-19T04:44:31;100868.34;;;21.93;73.01
77161;BME280;66135;0.000;0.000;2023-09-19T04:46:56;100869.63;;;21.91;72.88
77161;BME280;66135;0.000;0.000;2023-09-19T04:49:22;100867.28;;;21.88;72.97
77161;BME280;66135;0.000;0.000;2023-09-19T04:51:47;100870.03;;;21.88;73.11
77161;BME280;66135;0.000;0.000;2023-09-19T04:54:12;100880.28;;;21.86;72.92
77161;BME280;66135;0.000;0.000;2023-09-19T04:56:38;100882.81;;;21.87;73.20
77161;BME280;66135;0.000;0.000;2023-09-19T04:59:05;100883.00;;;21.86;73.34
77161;BME280;66135;0.000;0.000;2023-09-19T05:01:31;100881.31;;;21.85;72.88
77161;BME280;66135;0.000;0.000;2023-09-19T05:03:56;100889.47;;;21.85;73.07
77161;BME280;66135;0.000;0.000;2023-09-19T05:06:21;100891.41;;;21.84;73.13
77161;BME280;66135;0.000;0.000;2023-09-19T05:08:47;100893.25;;;21.84;73.47
77161;BME280;66135;0.000;0.000;2023-09-19T05:11:18;100886.97;;;21.83;73.38
77161;BME280;66135;0.000;0.000;2023-09-19T05:13:44;100884.22;;;21.83;73.37
77161;BME280;66135;0.000;0.000;2023-09-19T05:16:09;100890.75;;;21.82;73.11
77161;BME280;66135;0.000;0.000;2023-09-19T05:18:35;100888.66;;;21.84;73.22
77161;BME280;66135;0.000;0.000;2023-09-19T05:21:04;100895.34;;;21.82;73.00
77161;BME280;66135;0.000;0.000;2023-09-19T05:23:29;100900.78;;;21.82;73.30
77161;BME280;66135;0.000;0.000;2023-09-19T05:25:55;100901.84;;;21.81;73.13
77161;BME280;66135;0.000;0.000;2023-09-19T05:28:22;100905.59;;;21.80;73.31
77161;BME280;66135;0.000;0.000;2023-09-19T05:30:47;100901.84;;;21.81;73.22
77161;BME280;66135;0.000;0.000;2023-09-19T05:33:14;100907.47;;;21.79;72.87
77161;BME280;66135;0.000;0.000;2023-09-19T05:35:39;100900.34;;;21.78;73.10
77161;BME280;66135;0.000;0.000;2023-09-19T05:38:07;100900.34;;;21.78;72.84
77161;BME280;66135;0.000;0.000;2023-09-19T05:40:38;100897.63;;;21.78;73.21
77161;BME280;66135;0.000;0.000;2023-09-19T05:43:04;100898.66;;;21.77;72.91
77161;BME280;66135;0.000;0.000;2023-09-19T05:45:31;100899.66;;;21.76;72.85
77161;BME280;66135;0.000;0.000;2023-09-19T05:48:08;100911.44;;;21.77;72.73
77161;BME280;66135;0.000;0.000;2023-09-19T05:50:33;100910.41;;;21.78;72.81
77161;BME280;66135;0.000;0.000;2023-09-19T05:52:59;100900.34;;;21.78;72.58
77161;BME280;66135;0.000;0.000;2023-09-19T05:55:24;100903.72;;;21.80;72.72
77161;BME280;66135;0.000;0.000;2023-09-19T05:57:53;100901.84;;;21.81;72.30
77161;BME280;66135;0.000;0.000;2023-09-19T06:00:22;100907.31;;;21.81;72.72
77161;BME280;66135;0.000;0.000;2023-09-19T06:02:51;100905.59;;;21.80;72.60
77161;BME280;66135;0.000;0.000;2023-09-19T06:05:17;100903.25;;;21.77;72.16
77161;BME280;66135;0.000;0.000;2023-09-19T06:07:42;100894.69;;;21.80;72.21
77161;BME280;66135;0.000;0.000;2023-09-19T06:10:08;100901.84;;;21.81;72.45
77161;BME280;66135;0.000;0.000;2023-09-19T06:12:41;100898.06;;;21.82;72.50
77161;BME280;66135;0.000;0.000;2023-09-19T06:15:11;100909.84;;;21.82;72.11
77161;BME280;66135;0.000;0.000;2023-09-19T06:17:51;100914.03;;;21.85;72.32
77161;BME280;66135;0.000;0.000;2023-09-19T06:20:17;100908.78;;;21.83;72.28
77161;BME280;66135;0.000;0.000;2023-09-19T06:22:44;100905.19;;;21.83;72.20
77161;BME280;66135;0.000;0.000;2023-09-19T06:25:10;100907.31;;;21.81;72.10
77161;BME280;66135;0.000;0.000;2023-09-19T06:27:40;100913.78;;;21.80;71.64
77161;BME280;66135;0.000;0.000;2023-09-19T06:30:10;100910.19;;;21.79;70.41
77161;BME280;66135;0.000;0.000;2023-09-19T06:32:37;100919.44;;;21.78;70.32
77161;BME280;66135;0.000;0.000;2023-09-19T06:35:02;100921.31;;;21.78;70.65
77161;BME280;66135;0.000;0.000;2023-09-19T06:37:28;100926.13;;;21.76;70.48
77161;BME280;66135;0.000;0.000;2023-09-19T06:39:54;100929.88;;;21.75;70.72
77161;BME280;66135;0.000;0.000;2023-09-19T06:42:19;100933.66;;;21.74;70.11
77161;BME280;66135;0.000;0.000;2023-09-19T06:44:45;100942.03;;;21.72;70.21
77161;BME280;66135;0.000;0.000;2023-09-19T06:47:11;100943.25;;;21.70;70.45
77161;BME280;66135;0.000;0.000;2023-09-19T06:49:37;100939.66;;;21.69;70.22
77161;BME280;66135;0.000;0.000;2023-09-19T06:52:02;100938.00;;;21.68;70.01
77161;BME280;66135;0.000;0.000;2023-09-19T06:54:28;100939.66;;;21.69;70.26
77161;BME280;66135;0.000;0.000;2023-09-19T06:56:59;100930.00;;;21.67;70.09
77161;BME280;66135;0.000;0.000;2023-09-19T06:59:24;100937.53;;;21.65;70.41
77161;BME280;66135;0.000;0.000;2023-09-19T07:01:49;100938.38;;;21.65;70.21
77161;BME280;66135;0.000;0.000;2023-09-19T07:04:16;100943.00;;;21.65;70.14
77161;BME280;66135;0.000;0.000;2023-09-19T07:06:44;100952.19;;;21.64;70.18
77161;BME280;66135;0.000;0.000;2023-09-19T07:09:11;100942.34;;;21.63;70.30
77161;BME280;66135;0.000;0.000;2023-09-19T07:11:37;100933.31;;;21.62;70.51
77161;BME280;66135;0.000;0.000;2023-09-19T07:14:03;100940.66;;;21.62;70.34
77161;BME280;66135;0.000;0.000;2023-09-19T07:16:28;100939.59;;;21.63;70.37
77161;BME280;66135;0.000;0.000;2023-09-19T07:18:55;100938.38;;;21.65;70.41
77161;BME280;66135;0.000;0.000;2023-09-19T07:21:22;100938.38;;;21.65;70.80
77161;BME280;66135;0.000;0.000;2023-09-19T07:23:47;100949.09;;;21.67;70.39
77161;BME280;66135;0.000;0.000;2023-09-19T07:26:12;100944.66;;;21.66;70.45
77161;BME280;66135;0.000;0.000;2023-09-19T07:28:38;100950.97;;;21.66;70.44
77161;BME280;66135;0.000;0.000;2023-09-19T07:31:03;100945.50;;;21.66;70.14
77161;BME280;66135;0.000;0.000;2023-09-19T07:33:30;100957.28;;;21.67;70.26
77161;BME280;66135;0.000;0.000;2023-09-19T07:35:56;100949.28;;;21.65;70.38
77161;BME280;66135;0.000;0.000;2023-09-19T07:38:21;100954.91;;;21.64;70.47
77161;BME280;66135;0.000;0.000;2023-09-19T07:40:48;100956.81;;;21.63;70.30
77161;BME280;66135;0.000;0.000;2023-09-19T07:43:13;100939.59;;;21.63;70.19
77161;BME280;66135;0.000;0.000;2023-09-19T07:45:38;100948.84;;;21.62;70.28
77161;BME280;66135;0.000;0.000;2023-09-19T07:48:04;100952.78;;;21.59;70.45
77161;BME280;66135;0.000;0.000;2023-09-19T07:50:33;100945.47;;;21.60;70.55
77161;BME280;66135;0.000;0.000;2023-09-19T07:52:59;100949.22;;;21.59;70.35
77161;BME280;66135;0.000;0.000;2023-09-19T07:55:24;100950.72;;;21.61;70.35
77161;BME280;66135;0.000;0.000;2023-09-19T07:57:52;100953.44;;;21.61;70.59
77161;BME280;66135;0.000;0.000;2023-09-19T08:00:18;100957.66;;;21.64;70.70
77161;BME280;66135;0.000;0.000;2023-09-19T08:02:43;100948.66;;;21.63;70.81
77161;BME280;66135;0.000;0.000;2023-09-19T08:05:09;100948.66;;;21.63;70.80
77161;BME280;66135;0.000;0.000;2023-09-19T08:07:39;100956.63;;;21.65;70.75
77161;BME280;66135;0.000;0.000;2023-09-19T08:10:05;100952.84;;;21.66;70.47
77161;BME280;66135;0.000;0.000;2023-09-19T08:12:44;100950.31;;;21.64;70.22
77161;BME280;66135;0.000;0.000;2023-09-19T08:15:16;100952.84;;;21.66;70.46
77161;BME280;66135;0.000;0.000;2023-09-19T08:17:42;100946.56;;;21.65;70.48
77161;BME280;66135;0.000;0.000;2023-09-19T08:20:09;100950.78;;;21.68;70.63
77161;BME280;66135;0.000;0.000;2023-09-19T08:22:52;100956.22;;;21.68;70.89
77161;BME280;66135;0.000;0.000;2023-09-19T08:25:22;100954.16;;;21.70;70.69
77161;BME280;66135;0.000;0.000;2023-09-19T08:27:48;100956.03;;;21.69;70.99
77161;BME280;66135;0.000;0.000;2023-09-19T08:30:19;100952.28;;;21.70;71.22
77161;BME280;66135;0.000;0.000;2023-09-19T08:32:49;100958.09;;;21.67;71.00
77161;BME280;66135;0.000;0.000;2023-09-19T08:35:14;100963.38;;;21.69;70.80
77161;BME280;66135;0.000;0.000;2023-09-19T08:37:40;100949.91;;;21.67;71.14
77161;BME280;66135;0.000;0.000;2023-09-19T08:40:05;100953.50;;;21.68;70.95
77161;BME280;66135;0.000;0.000;2023-09-19T08:42:50;100964.41;;;21.68;71.08
77161;BME280;66135;0.000;0.000;2023-09-19T08:45:16;100952.66;;;21.67;71.03
77161;BME280;66135;0.000;0.000;2023-09-19T08:47:46;100959.16;;;21.66;71.28
77161;BME280;66135;0.000;0.000;2023-09-19T08:50:28;100940.06;;;21.66;71.02
77161;BME280;66135;0.000;0.000;2023-09-19T08:52:56;100954.56;;;21.67;71.34
77161;BME280;66135;0.000;0.000;2023-09-19T08:55:27;100955.56;;;21.66;71.10
77161;BME280;66135;0.000;0.000;2023-09-19T08:57:59;100956.44;;;21.66;70.95
77161;BME280;66135;0.000;0.000;2023-09-19T09:00:26;100952.03;;;21.65;71.01
77161;BME280;66135;0.000;0.000;2023-09-19T09:02:54;100953.91;;;21.65;71.03
77161;BME280;66135;0.000;0.000;2023-09-19T09:05:22;100949.28;;;21.65;71.23
77161;BME280;66135;0.000;0.000;2023-09-19T09:07:52;100961.22;;;21.64;71.27
77161;BME280;66135;0.000;0.000;2023-09-19T09:10:21;100948.66;;;21.63;70.93
77161;BME280;66135;0.000;0.000;2023-09-19T09:12:52;100957.66;;;21.64;71.41
77161;BME280;66135;0.000;0.000;2023-09-19T09:15:22;100954.09;;;21.63;71.07
77161;BME280;66135;0.000;0.000;2023-09-19T09:17:49;100955.78;;;21.64;71.26
77161;BME280;66135;0.000;0.000;2023-09-19T09:20:16;100940.66;;;21.62;71.05
77161;BME280;66135;0.000;0.000;2023-09-19T09:22:53;100941.69;;;21.61;71.00
77161;BME280;66135;0.000;0.000;2023-09-19T09:25:19;100958.03;;;21.61;71.24
77161;BME280;66135;0.000;0.000;2023-09-19T09:27:59;100955.97;;;21.63;70.94
77161;BME280;66135;0.000;0.000;2023-09-19T09:30:36;100951.94;;;21.59;71.18
77161;BME280;66135;0.000;0.000;2023-09-19T09:33:13;100949.22;;;21.59;71.04
77161;BME280;66135;0.000;0.000;2023-09-19T09:38:18;100969.34;;;21.58;71.36
77161;BME280;66135;0.000;0.000;2023-09-19T09:40:51;100951.13;;;21.58;71.06
77161;BME280;66135;0.000;0.000;2023-09-19T09:43:28;100949.22;;;21.59;71.26
77161;BME280;66135;0.000;0.000;2023-09-19T09:46:07;100948.19;;;21.60;71.06
77161;BME280;66135;0.000;0.000;2023-09-19T09:49:03;100951.13;;;21.58;70.95
77161;BME280;66135;0.000;0.000;2023-09-19T09:54:26;100939.81;;;21.61;71.03
77161;BME280;66135;0.000;0.000;2023-09-19T09:57:11;100929.75;;;21.62;71.09
77161;BME280;66135;0.000;0.000;2023-09-19T10:00:00;100931.44;;;21.63;71.28
77161;BME280;66135;0.000;0.000;2023-09-19T10:02:42;100930.56;;;21.62;71.08
77161;BME280;66135;0.000;0.000;2023-09-19T10:08:11;100945.25;;;21.61;71.27
77161;BME280;66135;0.000;0.000;2023-09-19T10:10:39;100933.09;;;21.64;71.60
77161;BME280;66135;0.000;0.000;2023-09-19T10:13:06;100935.84;;;21.64;71.72
77161;BME280;66135;0.000;0.000;2023-09-19T10:15:33;100934.81;;;21.65;71.86
77161;BME280;66135;0.000;0.000;2023-09-19T10:18:04;100924.56;;;21.67;71.56
77161;BME280;66135;0.000;0.000;2023-09-19T10:20:33;100927.94;;;21.69;71.33
77161;BME280;66135;0.000;0.000;2023-09-19T10:23:03;100924.16;;;21.70;71.62
77161;BME280;66135;0.000;0.000;2023-09-19T10:25:29;100925.00;;;21.70;71.68
77161;BME280;66135;0.000;0.000;2023-09-19T10:27:56;100934.66;;;21.73;71.76
77161;BME280;66135;0.000;0.000;2023-09-19T10:30:24;100918.94;;;21.75;71.92
77161;BME280;66135;0.000;0.000;2023-09-19T10:32:58;100917.94;;;21.76;72.44
77161;BME280;66135;0.000;0.000;2023-09-19T10:35:25;100920.28;;;21.79;72.57
77161;BME280;66135;0.000;0.000;2023-09-19T10:37:51;100923.84;;;21.79;72.60
77161;BME280;66135;0.000;0.000;2023-09-19T10:40:20;100931.66;;;21.82;72.57
77161;BME280;66135;0.000;0.000;2023-09-19T10:42:52;100934.38;;;21.82;72.35
77161;BME280;66135;0.000;0.000;2023-09-19T10:45:19;100924.28;;;21.83;72.00
77161;BME280;66135;0.000;0.000;2023-09-19T10:47:45;100927.00;;;21.83;72.52
77161;BME280;66135;0.000;0.000;2023-09-19T10:50:20;100929.75;;;21.83;72.54
77161;BME280;66135;0.000;0.000;2023-09-19T10:52:47;100923.47;;;21.82;72.26
77161;BME280;66135;0.000;0.000;2023-09-19T10:55:16;100922.63;;;21.82;72.22
77161;BME280;66135;0.000;0.000;2023-09-19T10:57:47;100918.22;;;21.81;72.64
77161;BME280;66135;0.000;0.000;2023-09-19T11:00:13;100930.78;;;21.82;72.26
77161;BME280;66135;0.000;0.000;2023-09-19T11:03:16;100913.38;;;21.83;72.32
77161;BME280;66135;0.000;0.000;2023-09-19T11:06:05;100919.69;;;21.83;72.66
77161;BME280;66135;0.000;0.000;2023-09-19T11:08:53;100914.22;;;21.83;72.73
77161;BME280;66135;0.000;0.000;2023-09-19T11:11:48;100905.19;;;21.83;72.31
77161;BME280;66135;0.000;0.000;2023-09-19T11:30:45;100891.84;;;21.88;72.55
77161;BME280;66135;0.000;0.000;2023-09-19T11:33:31;100888.25;;;21.87;72.62
77161;BME280;66135;0.000;0.000;2023-09-19T11:36:08;100870.84;;;21.88;72.98
77161;BME280;66135;0.000;0.000;2023-09-19T11:46:13;100856.38;;;21.88;72.76
77161;BME280;66135;0.000;0.000;2023-09-19T11:48:42;100857.19;;;21.88;73.13
77161;BME280;66135;0.000;0.000;2023-09-19T11:51:16;100862.66;;;21.88;72.64
77161;BME280;66135;0.000;0.000;2023-09-19T11:53:47;100870.84;;;21.88;72.57
77161;BME280;66135;0.000;0.000;2023-09-19T11:56:18;100845.47;;;21.88;73.02
77161;BME280;66135;0.000;0.000;2023-09-19T11:58:45;100847.16;;;21.89;72.91
77161;BME280;66135;0.000;0.000;2023-09-19T12:01:19;100845.47;;;21.88;73.13
77161;BME280;66135;0.000;0.000;2023-09-19T12:03:47;100845.28;;;21.89;73.25
77161;BME280;66135;0.000;0.000;2023-09-19T12:06:15;100838.97;;;21.89;73.12
77161;BME280;66135;0.000;0.000;2023-09-19T12:08:42;100848.00;;;21.89;73.10
77161;BME280;66135;0.000;0.000;2023-09-19T12:11:13;100848.00;;;21.89;73.30
77161;BME280;66135;0.000;0.000;2023-09-19T12:13:45;100848.00;;;21.89;73.27
77161;BME280;66135;0.000;0.000;2023-09-19T12:16:15;100841.69;;;21.89;73.30
77161;BME280;66135;0.000;0.000;2023-09-19T12:18:43;100841.50;;;21.90;73.50
77161;BME280;66135;0.000;0.000;2023-09-19T12:21:24;100849.66;;;21.90;73.12
77161;BME280;66135;0.000;0.000;2023-09-19T12:24:06;100842.34;;;21.91;73.35
77161;BME280;66135;0.000;0.000;2023-09-19T12:26:40;100841.50;;;21.90;73.71
77161;BME280;66135;0.000;0.000;2023-09-19T12:29:19;100847.78;;;21.91;73.62
77161;BME280;66135;0.000;0.000;2023-09-19T12:31:55;100846.75;;;21.92;73.43
77161;BME280;66135;0.000;0.000;2023-09-19T12:34:32;100845.06;;;21.91;73.52
77161;BME280;66135;0.000;0.000;2023-09-19T12:37:08;100852.41;;;21.90;73.56
77161;BME280;66135;0.000;0.000;2023-09-19T12:39:44;100854.28;;;21.90;73.54
77161;BME280;66135;0.000;0.000;2023-09-19T12:42:14;100865.19;;;21.90;73.68
77161;BME280;66135;0.000;0.000;2023-09-19T12:44:55;100872.75;;;21.88;73.80
77161;BME280;66135;0.000;0.000;2023-09-19T12:47:23;100858.06;;;21.89;73.64
77161;BME280;66135;0.000;0.000;2023-09-19T12:50:15;100857.19;;;21.88;73.47
77161;BME280;66135;0.000;0.000;2023-09-19T12:52:52;100852.59;;;21.89;73.43
77161;BME280;66135;0.000;0.000;2023-09-19T12:55:27;100848.81;;;21.90;73.44
77161;BME280;66135;0.000;0.000;2023-09-19T12:58:08;100838.75;;;21.90;73.35
77161;BME280;66135;0.000;0.000;2023-09-19T13:00:35;100854.09;;;21.91;73.75
77161;BME280;66135;0.000;0.000;2023-09-19T13:03:16;100845.91;;;21.91;73.41
77161;BME280;66135;0.000;0.000;2023-09-19T13:05:52;100852.41;;;21.90;73.65
77161;BME280;66135;0.000;0.000;2023-09-19T13:08:25;100848.00;;;21.89;73.66
77161;BME280;66135;0.000;0.000;2023-09-19T13:11:12;100843.19;;;21.91;73.63
77161;BME280;66135;0.000;0.000;2023-09-19T13:13:47;100854.72;;;21.93;73.64
77161;BME280;66135;0.000;0.000;2023-09-19T13:16:14;100837.53;;;21.93;73.53
77161;BME280;66135;0.000;0.000;2023-09-19T13:18:51;100838.56;;;21.92;73.38
77161;BME280;66135;0.000;0.000;2023-09-19T13:21:32;100854.91;;;21.92;73.50
77161;BME280;66135;0.000;0.000;2023-09-19T13:24:24;100844.84;;;21.92;73.67
77161;BME280;66135;0.000;0.000;2023-09-19T13:26:54;100846.75;;;21.92;73.59
77161;BME280;66135;0.000;0.000;2023-09-19T13:29:19;100856.63;;;21.93;73.56
77161;BME280;66135;0.000;0.000;2023-09-19T13:31:54;100863.09;;;21.92;73.86
77161;BME280;66135;0.000;0.000;2023-09-19T13:34:19;100862.28;;;21.91;73.43
77161;BME280;66135;0.000;0.000;2023-09-19T13:36:46;100861.44;;;21.91;73.54
77161;BME280;66135;0.000;0.000;2023-09-19T13:39:14;100849.66;;;21.90;73.84
77161;BME280;66135;0.000;0.000;2023-09-19T13:41:41;100860.38;;;21.92;73.76
77161;BME280;66135;0.000;0.000;2023-09-19T13:44:08;100853.25;;;21.91;73.88
77161;BME280;66135;0.000;0.000;2023-09-19T13:46:36;100850.53;;;21.91;73.47
77161;BME280;66135;0.000;0.000;2023-09-19T13:49:01;100843.81;;;21.93;73.90
77161;BME280;66135;0.000;0.000;2023-09-19T13:51:30;100862.72;;;21.95;73.31
77161;BME280;66135;0.000;0.000;2023-09-19T13:53:56;100859.34;;;21.93;73.46
77161;BME280;66135;0.000;0.000;2023-09-19T13:56:21;100857.66;;;21.92;73.60
77161;BME280;66135;0.000;0.000;2023-09-19T13:58:47;100860.16;;;21.93;73.86
77161;BME280;66135;0.000;0.000;2023-09-19T14:01:12;100844.00;;;21.92;73.57
77161;BME280;66135;0.000;0.000;2023-09-19T14:03:41;100846.75;;;21.92;73.56